createdAt,value
2022-12-16T00:00:10.291Z,8.60
2022-12-16T00:02:37.925Z,12.30
2022-12-16T00:05:05.724Z,8.10
2022-12-16T00:07:33.109Z,6.97
2022-12-16T00:10:00.544Z,8.20
2022-12-16T00:12:27.996Z,8.33
2022-12-16T00:14:55.396Z,7.03
2022-12-16T00:17:22.854Z,7.13
2022-12-16T00:19:50.155Z,7.18
2022-12-16T00:22:17.904Z,6.18
2022-12-16T00:24:45.298Z,6.18
2022-12-16T00:27:12.596Z,6.55
2022-12-16T00:29:39.918Z,6.40
2022-12-16T00:32:07.593Z,8.10
2022-12-16T00:34:35.473Z,7.40
2022-12-16T00:37:02.877Z,6.25
2022-12-16T00:39:30.172Z,6.88
2022-12-16T00:41:57.540Z,6.53
2022-12-16T00:44:24.933Z,6.88
2022-12-16T00:46:52.345Z,7.43
2022-12-16T00:49:19.634Z,5.53
2022-12-16T00:51:46.968Z,6.47
2022-12-16T00:54:14.252Z,5.60
2022-12-16T00:56:41.640Z,5.70
2022-12-16T00:59:09.015Z,6.30
2022-12-16T01:01:36.553Z,5.05
2022-12-16T01:04:04.223Z,6.20
2022-12-16T01:06:31.695Z,4.70
2022-12-16T01:08:59.083Z,5.05
2022-12-16T01:11:26.421Z,5.00
2022-12-16T01:13:55.160Z,5.68
2022-12-16T01:16:22.848Z,6.53
2022-12-16T01:18:50.449Z,4.90
2022-12-16T01:21:17.890Z,4.38
2022-12-16T01:23:47.101Z,4.78
2022-12-16T01:26:17.951Z,3.63
2022-12-16T01:28:47.884Z,4.37
2022-12-16T01:31:17.458Z,5.35
2022-12-16T01:33:44.840Z,3.22
2022-12-16T01:36:12.237Z,4.60
2022-12-16T01:38:42.716Z,4.07
2022-12-16T01:41:11.464Z,4.50
2022-12-16T01:43:40.549Z,4.50
2022-12-16T01:46:14.262Z,3.65
2022-12-16T01:48:48.658Z,3.28
2022-12-16T01:51:28.921Z,3.40
2022-12-16T01:56:53.787Z,2.50
2022-12-16T01:59:25.313Z,2.97
2022-12-16T02:01:53.267Z,3.85
2022-12-16T02:04:21.444Z,2.63
2022-12-16T02:06:49.122Z,2.60
2022-12-16T02:09:17.780Z,3.38
2022-12-16T02:14:36.633Z,2.88
2022-12-16T02:17:14.914Z,2.60
2022-12-16T02:19:42.257Z,3.17
2022-12-16T02:22:37.928Z,3.07
2022-12-16T02:25:20.174Z,2.95
2022-12-16T02:31:27.257Z,3.70
2022-12-16T02:34:03.647Z,3.58
2022-12-16T02:36:53.617Z,4.05
2022-12-16T02:39:29.569Z,2.80
2022-12-16T02:42:19.540Z,2.83
2022-12-16T02:47:39.172Z,3.63
2022-12-16T02:50:22.582Z,3.05
2022-12-16T02:52:52.664Z,3.00
2022-12-16T02:55:22.245Z,2.42
2022-12-16T02:58:11.674Z,2.95
2022-12-16T03:04:16.120Z,2.67
2022-12-16T03:06:49.285Z,2.70
2022-12-16T03:09:25.646Z,2.58
2022-12-16T03:11:55.257Z,3.25
2022-12-16T03:14:25.593Z,3.25
2022-12-16T03:16:53.811Z,3.53
2022-12-16T03:19:23.498Z,3.85
2022-12-16T03:21:54.921Z,3.80
2022-12-16T03:24:22.707Z,3.72
2022-12-16T03:27:21.725Z,4.47
2022-12-16T03:29:59.109Z,4.07
2022-12-16T03:32:40.071Z,3.58
2022-12-16T03:38:04.036Z,4.38
2022-12-16T03:40:33.492Z,5.95
2022-12-16T03:43:02.778Z,5.60
2022-12-16T03:45:37.199Z,4.63
2022-12-16T03:48:08.479Z,4.97
2022-12-16T03:53:26.280Z,5.07
2022-12-16T03:55:54.690Z,5.53
2022-12-16T03:58:22.114Z,5.88
2022-12-16T04:00:49.701Z,6.22
2022-12-16T04:03:17.309Z,5.40
2022-12-16T04:05:46.015Z,5.60
2022-12-16T04:11:16.788Z,5.20
2022-12-16T04:14:02.744Z,7.80
2022-12-16T04:16:49.388Z,6.57
2022-12-16T04:19:46.883Z,6.32
2022-12-16T04:22:41.177Z,6.28
2022-12-16T04:27:59.287Z,7.78
2022-12-16T04:30:28.662Z,8.40
2022-12-16T04:33:25.151Z,8.13
2022-12-16T04:36:11.017Z,7.70
2022-12-16T04:38:57.194Z,7.72
2022-12-16T04:44:47.028Z,8.48
2022-12-16T04:47:32.959Z,8.15
2022-12-16T04:50:18.960Z,9.30
2022-12-16T04:53:04.904Z,9.40
2022-12-16T04:55:50.830Z,9.43
2022-12-16T05:01:40.695Z,11.57
2022-12-16T05:04:26.923Z,9.65
2022-12-16T05:07:12.923Z,9.60
2022-12-16T05:09:58.932Z,11.18
2022-12-16T05:12:44.892Z,10.57
2022-12-16T05:15:30.617Z,12.15
2022-12-16T05:18:16.695Z,12.85
2022-12-16T05:21:02.680Z,12.98
2022-12-16T05:23:50.283Z,10.68
2022-12-16T05:26:36.082Z,10.80
2022-12-16T05:29:22.017Z,13.63
2022-12-16T05:35:11.444Z,13.52
2022-12-16T05:37:57.334Z,13.73
2022-12-16T05:40:43.339Z,15.50
2022-12-16T05:43:29.360Z,15.43
2022-12-16T05:46:15.565Z,17.10
2022-12-16T05:49:01.607Z,14.88
2022-12-16T05:51:47.756Z,17.20
2022-12-16T05:54:33.515Z,14.57
2022-12-16T05:57:19.377Z,15.15
2022-12-16T06:00:05.383Z,13.88
2022-12-16T06:02:57.554Z,13.73
2022-12-16T06:05:43.591Z,16.88
2022-12-16T06:08:29.438Z,14.63
2022-12-16T06:11:15.640Z,16.83
2022-12-16T06:14:01.393Z,14.45
2022-12-16T06:16:47.352Z,16.23
2022-12-16T06:19:33.016Z,13.75
2022-12-16T06:22:19.032Z,15.73
2022-12-16T06:25:04.790Z,16.88
2022-12-16T06:27:50.786Z,16.80
2022-12-16T06:30:36.620Z,15.95
2022-12-16T06:33:22.523Z,15.75
2022-12-16T06:36:08.279Z,16.45
2022-12-16T06:38:54.068Z,16.27
2022-12-16T06:41:40.051Z,16.95
2022-12-16T06:44:25.962Z,18.92
2022-12-16T06:47:12.000Z,16.83
2022-12-16T06:49:57.824Z,18.15
2022-12-16T06:52:57.350Z,17.40
2022-12-16T06:55:43.386Z,19.15
2022-12-16T06:58:29.285Z,18.40
2022-12-16T07:01:15.276Z,18.48
2022-12-16T07:04:01.269Z,19.08
2022-12-16T07:06:47.163Z,17.95
2022-12-16T07:09:33.045Z,20.15
2022-12-16T07:12:18.860Z,21.02
2022-12-16T07:15:04.967Z,20.30
2022-12-16T07:17:50.747Z,20.30
2022-12-16T07:20:36.609Z,19.95
2022-12-16T07:23:22.280Z,20.92
2022-12-16T07:26:08.487Z,20.40
2022-12-16T07:28:54.380Z,22.23
2022-12-16T07:31:44.959Z,21.10
2022-12-16T07:34:33.490Z,21.55
2022-12-16T07:37:23.065Z,21.77
2022-12-16T07:40:08.886Z,22.77
2022-12-16T07:42:54.588Z,25.63
2022-12-16T07:45:45.120Z,21.75
2022-12-16T07:48:31.429Z,26.17
2022-12-16T07:51:17.237Z,23.85
2022-12-16T07:54:03.122Z,28.90
2022-12-16T07:56:49.172Z,29.08
2022-12-16T07:59:35.309Z,24.30
2022-12-16T08:02:21.214Z,26.80
2022-12-16T08:05:07.212Z,23.92
2022-12-16T08:07:53.108Z,27.50
2022-12-16T08:10:39.233Z,26.48
2022-12-16T08:13:26.052Z,24.33
2022-12-16T08:16:12.404Z,27.33
2022-12-16T08:18:58.369Z,27.13
2022-12-16T08:21:44.208Z,26.88
2022-12-16T08:24:30.186Z,24.93
2022-12-16T08:27:16.247Z,30.10
2022-12-16T08:30:02.106Z,25.13
2022-12-16T08:32:48.002Z,26.60
2022-12-16T08:35:33.885Z,26.55
2022-12-16T08:38:19.573Z,22.10
2022-12-16T08:41:05.853Z,26.47
2022-12-16T08:43:53.658Z,28.87
2022-12-16T08:46:41.043Z,27.48
2022-12-16T08:49:27.146Z,24.02
2022-12-16T08:52:13.064Z,24.25
2022-12-16T08:54:59.048Z,26.50
2022-12-16T08:57:45.278Z,22.65
2022-12-16T09:00:31.887Z,27.25
2022-12-16T09:03:18.778Z,25.13
2022-12-16T09:06:05.553Z,26.37
2022-12-16T09:09:11.436Z,28.17
2022-12-16T09:11:57.132Z,23.40
2022-12-16T09:14:43.314Z,24.90
2022-12-16T09:17:30.168Z,23.13
2022-12-16T09:20:15.939Z,25.02
2022-12-16T09:23:01.858Z,22.52
2022-12-16T09:25:48.060Z,22.92
2022-12-16T09:28:34.083Z,20.87
2022-12-16T09:31:20.152Z,24.83
2022-12-16T09:34:06.113Z,24.30
2022-12-16T09:36:51.969Z,22.00
2022-12-16T09:39:38.434Z,20.23
2022-12-16T09:42:30.496Z,18.98
2022-12-16T09:45:32.121Z,17.85
2022-12-16T09:48:40.557Z,29.23
2022-12-16T09:51:28.416Z,21.33
2022-12-16T09:54:15.159Z,20.40
2022-12-16T09:57:04.161Z,18.20
2022-12-16T09:59:54.540Z,26.58
2022-12-16T10:02:43.806Z,23.98
2022-12-16T10:05:33.591Z,21.70
2022-12-16T10:08:19.494Z,21.03
2022-12-16T10:11:25.696Z,20.50
2022-12-16T10:14:24.127Z,23.58
2022-12-16T10:17:45.775Z,19.85
2022-12-16T10:20:50.967Z,18.00
2022-12-16T10:23:47.198Z,19.83
2022-12-16T10:26:41.973Z,17.07
2022-12-16T10:29:45.021Z,15.18
2022-12-16T10:32:39.996Z,19.13
2022-12-16T10:35:56.887Z,16.90
2022-12-16T10:38:54.978Z,18.58
2022-12-16T10:41:44.968Z,19.45
2022-12-16T10:44:44.598Z,18.77
2022-12-16T10:47:30.722Z,20.80
2022-12-16T10:50:17.649Z,17.03
2022-12-16T10:53:20.393Z,17.08
2022-12-16T10:56:41.234Z,15.95
2022-12-16T10:59:28.138Z,16.13
2022-12-16T11:02:23.712Z,15.38
2022-12-16T11:05:09.888Z,13.77
2022-12-16T11:08:11.850Z,14.68
2022-12-16T11:11:02.438Z,17.50
2022-12-16T11:13:51.153Z,19.27
2022-12-16T11:16:47.710Z,13.27
2022-12-16T11:19:45.798Z,15.05
2022-12-16T11:22:39.130Z,16.50
2022-12-16T11:25:36.634Z,14.30
2022-12-16T11:28:34.534Z,16.38
2022-12-16T11:31:35.160Z,18.85
2022-12-16T11:34:22.506Z,13.80
2022-12-16T11:37:11.139Z,16.88
2022-12-16T11:39:58.868Z,17.38
2022-12-16T11:42:50.849Z,15.80
2022-12-16T11:45:40.038Z,17.53
2022-12-16T11:48:46.533Z,16.55
2022-12-16T11:51:34.133Z,16.45
2022-12-16T11:54:35.769Z,18.05
2022-12-16T11:57:24.714Z,18.80
2022-12-16T12:00:19.642Z,19.95
2022-12-16T12:03:25.869Z,20.08
2022-12-16T12:06:31.654Z,21.57
2022-12-16T12:09:20.462Z,16.67
2022-12-16T12:12:31.343Z,19.63
2022-12-16T12:15:28.145Z,19.95
2022-12-16T12:18:31.606Z,18.38
2022-12-16T12:21:20.801Z,20.88
2022-12-16T12:24:09.508Z,18.17
2022-12-16T12:27:02.545Z,21.90
2022-12-16T12:30:01.086Z,18.48
2022-12-16T12:33:18.945Z,17.45
2022-12-16T12:36:22.974Z,20.58
2022-12-16T12:39:20.920Z,19.60
2022-12-16T12:42:12.743Z,17.30
2022-12-16T12:45:40.540Z,17.83
2022-12-16T12:48:56.107Z,21.58
2022-12-16T12:52:07.082Z,18.85
2022-12-16T12:55:04.026Z,16.90
2022-12-16T12:57:53.180Z,16.25
2022-12-16T13:00:41.298Z,20.85
2022-12-16T13:03:37.429Z,22.67
2022-12-16T13:06:25.501Z,21.70
2022-12-16T13:09:11.499Z,19.95
2022-12-16T13:12:19.610Z,21.88
2022-12-16T13:15:08.508Z,22.38
2022-12-16T13:18:19.890Z,20.65
2022-12-16T13:21:11.215Z,21.63
2022-12-16T13:23:59.720Z,21.08
2022-12-16T13:26:48.452Z,19.67
2022-12-16T13:29:48.965Z,26.90
2022-12-16T13:32:41.571Z,22.90
2022-12-16T13:35:27.326Z,23.60
2022-12-16T13:38:20.212Z,21.25
2022-12-16T13:41:17.649Z,22.63
2022-12-16T13:44:13.416Z,23.05
2022-12-16T13:47:06.374Z,24.88
2022-12-16T13:49:54.947Z,22.83
2022-12-16T13:53:10.713Z,20.67
2022-12-16T13:55:56.471Z,19.25
2022-12-16T13:59:03.425Z,20.10
2022-12-16T14:02:12.491Z,19.10
2022-12-16T14:05:01.988Z,22.92
2022-12-16T14:07:51.835Z,21.70
2022-12-16T14:10:53.753Z,18.33
2022-12-16T14:13:47.385Z,16.70
2022-12-16T14:16:56.189Z,20.60
2022-12-16T14:20:13.202Z,20.60
2022-12-16T14:23:55.430Z,20.80
2022-12-16T14:26:35.731Z,22.88
2022-12-16T14:29:33.156Z,20.98
2022-12-16T14:32:19.312Z,23.07
2022-12-16T14:35:05.095Z,20.40
2022-12-16T14:37:57.555Z,19.90
2022-12-16T14:40:52.483Z,24.27
2022-12-16T14:43:41.291Z,20.85
2022-12-16T14:46:46.616Z,22.52
2022-12-16T14:49:42.796Z,20.77
2022-12-16T14:52:43.116Z,21.63
2022-12-16T14:55:50.729Z,20.67
2022-12-16T14:58:41.587Z,22.40
2022-12-16T15:01:38.202Z,20.67
2022-12-16T15:04:42.362Z,19.33
2022-12-16T15:07:32.720Z,20.40
2022-12-16T15:10:19.606Z,23.75
2022-12-16T15:13:07.575Z,19.38
2022-12-16T15:15:57.872Z,22.37
2022-12-16T15:18:53.703Z,22.25
2022-12-16T15:21:39.521Z,22.30
2022-12-16T15:24:34.092Z,25.17
2022-12-16T15:27:39.258Z,22.65
2022-12-16T15:30:56.636Z,23.48
2022-12-16T15:33:48.664Z,24.42
2022-12-16T15:36:47.523Z,22.03
2022-12-16T15:39:38.157Z,24.42
2022-12-16T15:42:24.746Z,21.20
2022-12-16T15:45:10.860Z,24.15
2022-12-16T15:47:57.449Z,25.50
2022-12-16T15:50:46.596Z,24.42
2022-12-16T15:53:49.399Z,25.30
2022-12-16T15:56:42.074Z,24.85
2022-12-16T15:59:50.610Z,24.52
2022-12-16T16:02:45.940Z,24.73
2022-12-16T16:05:41.746Z,24.83
2022-12-16T16:08:30.505Z,26.85
2022-12-16T16:11:16.581Z,24.85
2022-12-16T16:14:08.358Z,26.77
2022-12-16T16:16:58.503Z,23.88
2022-12-16T16:19:46.370Z,27.05
2022-12-16T16:22:35.791Z,26.58
2022-12-16T16:25:21.841Z,33.08
2022-12-16T16:28:07.563Z,43.22
2022-12-16T16:30:55.035Z,42.53
2022-12-16T16:33:41.253Z,45.70
2022-12-16T16:36:34.363Z,46.03
2022-12-16T16:39:20.315Z,42.25
2022-12-16T16:42:06.536Z,40.42
2022-12-16T16:44:52.670Z,38.85
2022-12-16T16:47:38.472Z,40.90
2022-12-16T16:50:25.151Z,38.85
2022-12-16T16:53:11.032Z,36.27
2022-12-16T16:55:56.872Z,37.88
2022-12-16T16:58:46.227Z,38.35
2022-12-16T17:01:34.707Z,40.22
2022-12-16T17:04:21.519Z,37.93
2022-12-16T17:07:07.700Z,36.50
2022-12-16T17:09:53.712Z,34.03
2022-12-16T17:12:40.681Z,29.65
2022-12-16T17:15:54.810Z,36.97
2022-12-16T17:18:45.558Z,33.83
2022-12-16T17:21:32.635Z,38.15
2022-12-16T17:24:18.704Z,37.03
2022-12-16T17:27:04.715Z,35.67
2022-12-16T17:29:50.769Z,38.47
2022-12-16T17:32:50.630Z,35.55
2022-12-16T17:35:36.836Z,35.30
2022-12-16T17:38:22.823Z,33.77
2022-12-16T17:41:11.782Z,32.33
2022-12-16T17:43:57.700Z,34.55
2022-12-16T17:46:43.652Z,33.30
2022-12-16T17:49:29.617Z,37.10
2022-12-16T17:52:15.426Z,34.10
2022-12-16T17:55:01.152Z,35.55
2022-12-16T17:57:47.390Z,37.67
2022-12-16T18:00:33.706Z,32.60
2022-12-16T18:03:20.309Z,34.67
2022-12-16T18:06:06.504Z,34.70
2022-12-16T18:08:52.610Z,37.03
2022-12-16T18:11:38.977Z,39.57
2022-12-16T18:14:25.168Z,36.50
2022-12-16T18:17:10.952Z,35.75
2022-12-16T18:19:56.823Z,29.08
2022-12-16T18:22:42.556Z,33.03
2022-12-16T18:25:28.691Z,33.50
2022-12-16T18:28:14.718Z,39.67
2022-12-16T18:31:00.599Z,46.38
2022-12-16T18:33:46.741Z,42.15
2022-12-16T18:36:32.611Z,45.10
2022-12-16T18:39:18.648Z,46.90
2022-12-16T18:42:05.892Z,43.88
2022-12-16T18:44:57.581Z,53.50
2022-12-16T18:47:46.648Z,58.88
2022-12-16T18:50:37.457Z,65.90
2022-12-16T18:53:24.607Z,66.97
2022-12-16T18:56:25.551Z,53.92
2022-12-16T18:59:12.339Z,52.43
2022-12-16T19:01:59.187Z,61.42
2022-12-16T19:04:45.533Z,57.70
2022-12-16T19:07:33.777Z,56.10
2022-12-16T19:10:20.358Z,61.50
2022-12-16T19:13:06.509Z,57.78
2022-12-16T19:15:53.012Z,60.92
2022-12-16T19:18:38.732Z,56.38
2022-12-16T19:21:24.735Z,51.87
2022-12-16T19:24:10.480Z,56.72
2022-12-16T19:26:56.717Z,51.37
2022-12-16T19:29:43.812Z,50.63
2022-12-16T19:32:29.809Z,53.97
2022-12-16T19:35:15.788Z,52.55
2022-12-16T19:38:02.062Z,47.08
2022-12-16T19:40:48.126Z,48.45
2022-12-16T19:43:34.938Z,55.50
2022-12-16T19:46:20.985Z,57.90
2022-12-16T19:49:06.811Z,51.97
2022-12-16T19:51:52.956Z,53.92
2022-12-16T19:54:42.323Z,51.20
2022-12-16T19:57:28.172Z,53.17
2022-12-16T20:00:14.059Z,49.80
2022-12-16T20:02:59.937Z,46.28
2022-12-16T20:05:46.197Z,44.70
2022-12-16T20:08:32.668Z,50.08
2022-12-16T20:11:24.764Z,50.72
2022-12-16T20:14:12.134Z,46.08
2022-12-16T20:17:00.122Z,43.78
2022-12-16T20:19:46.443Z,50.17
2022-12-16T20:22:32.307Z,46.67
2022-12-16T20:25:18.216Z,48.88
2022-12-16T20:28:04.009Z,45.17
2022-12-16T20:30:49.743Z,50.88
2022-12-16T20:33:35.639Z,48.38
2022-12-16T20:36:23.392Z,50.23
2022-12-16T20:39:09.443Z,45.97
2022-12-16T20:45:01.904Z,45.10
2022-12-16T20:47:48.061Z,40.20
2022-12-16T20:50:33.906Z,44.28
2022-12-16T20:53:19.709Z,42.30
2022-12-16T20:56:05.553Z,44.83
2022-12-16T20:58:51.794Z,44.78
2022-12-16T21:01:38.412Z,43.33
2022-12-16T21:04:27.429Z,41.75
2022-12-16T21:07:13.140Z,44.22
2022-12-16T21:09:59.122Z,37.88
2022-12-16T21:12:45.029Z,41.90
2022-12-16T21:14:42.696Z,47.10
2022-12-16T21:15:31.081Z,40.30
2022-12-16T21:18:20.204Z,46.65
2022-12-16T21:21:13.508Z,41.60
2022-12-16T21:24:00.085Z,42.38
2022-12-16T21:26:46.125Z,39.78
2022-12-16T21:29:31.979Z,39.15
2022-12-16T21:32:17.804Z,39.03
2022-12-16T21:35:03.671Z,35.65
2022-12-16T21:37:51.042Z,38.53
2022-12-16T21:40:37.452Z,34.75
2022-12-16T21:43:23.535Z,32.55
2022-12-16T21:46:13.546Z,32.33
2022-12-16T21:48:59.784Z,27.73
2022-12-16T21:51:45.492Z,31.42
2022-12-16T21:54:31.573Z,30.23
2022-12-16T21:57:17.492Z,28.85
2022-12-16T22:00:03.569Z,26.23
2022-12-16T22:02:56.628Z,29.77
2022-12-16T22:05:42.805Z,31.48
2022-12-16T22:08:29.131Z,32.97
2022-12-16T22:11:14.919Z,30.70
2022-12-16T22:14:00.675Z,35.88
2022-12-16T22:16:46.784Z,29.90
2022-12-16T22:19:32.590Z,30.63
2022-12-16T22:22:18.505Z,28.92
2022-12-16T22:25:07.198Z,30.02
2022-12-16T22:27:56.890Z,32.57
2022-12-16T22:30:42.787Z,28.80
2022-12-16T22:33:30.523Z,29.85
2022-12-16T22:36:25.594Z,33.40
2022-12-16T22:39:11.531Z,30.00
2022-12-16T22:41:57.700Z,29.23
2022-12-16T22:44:43.755Z,29.33
2022-12-16T22:47:29.649Z,29.83
2022-12-16T22:50:15.630Z,26.08
2022-12-16T22:53:01.524Z,24.30
2022-12-16T22:55:47.261Z,25.48
2022-12-16T22:58:33.038Z,27.43
2022-12-16T23:01:18.757Z,28.13
2022-12-16T23:04:04.569Z,29.33
2022-12-16T23:06:50.308Z,30.67
2022-12-16T23:09:36.228Z,28.48
2022-12-16T23:12:22.242Z,33.10
2022-12-16T23:15:07.955Z,34.28
2022-12-16T23:17:53.749Z,35.70
2022-12-16T23:20:42.407Z,40.45
2022-12-16T23:23:28.095Z,40.53
2022-12-16T23:26:18.873Z,38.67
2022-12-16T23:29:09.611Z,39.28
2022-12-16T23:31:56.508Z,46.10
2022-12-16T23:34:45.951Z,42.05
2022-12-16T23:37:33.823Z,45.38
2022-12-16T23:40:20.047Z,44.90
2022-12-16T23:43:06.232Z,48.50
2022-12-16T23:45:52.007Z,43.90
2022-12-16T23:48:37.933Z,39.75
2022-12-16T23:51:23.890Z,43.10
2022-12-16T23:54:09.492Z,42.38
2022-12-16T23:56:56.421Z,44.20
2022-12-16T23:59:42.204Z,47.25
